Latest Weather Observations for Minnipa RS

IDS60801

Issued at 8:21 pm CDT Thursday 21 February 2019 (issued every 10 minutes, with the page automatically refreshed every 10 minutes)

About weather observations | Map of weather stations | Latest weather observations for SA | Other Formats
Station Details ID: 018195 Name: MINNIPA PIRSA Lat: -32.84 Lon: 135.15 Height: 165.0 m
Data from the previous 72 hours. | See also: Recent months at Minnipa RS
Date/Time
CDT
Temp
°C
App
Temp
°C
Dew
Point
°C
Rel
Hum
%
Delta-T
°C
Wind Press
QNH
hPa
Press
MSL
hPa
Rain since
9am
mm
Dir  Spd
km/h
Gust
km/h
Spd
kts
Gust
kts
21/08:00pm 25.4 21.7 10.1 38 8.5 SW 20 30 11 16 1018.2 1017.4 0.0
21/07:30pm 26.4 22.1 10.9 38 8.8 SW 24 33 13 18 1017.9 1017.1 0.0
21/07:00pm 27.2 22.0 10.4 35 9.5 SW 28 37 15 20 1017.8 1017.0 0.0
21/06:30pm 29.3 24.3 9.4 29 11.2 SSW 26 35 14 19 1017.6 1016.8 0.0
21/06:00pm 30.3 26.2 -0.1 14 14.6 SE 11 24 6 13 1017.6 1016.8 0.0
21/05:30pm 31.3 25.8 0.6 14 15.0 SSE 19 28 10 15 1017.7 1016.9 0.0
21/05:00pm 30.3 24.8 0.8 15 14.4 SE 19 32 10 17 1017.9 1017.1 0.0
21/04:30pm 29.8 25.0 0.4 15 14.2 SSE 15 28 8 15 1018.0 1017.2 0.0
21/04:00pm 29.7 24.5 0.3 15 14.2 ESE 17 28 9 15 1018.2 1017.4 0.0
21/03:30pm 30.3 25.4 1.7 16 14.2 SE 17 28 9 15 1018.6 1017.8 0.0
21/03:00pm 28.7 25.1 2.8 19 12.9 ENE 11 19 6 10 1019.0 1018.2 0.0
21/02:30pm 28.4 24.5 3.3 20 12.6 ESE 13 24 7 13 1019.3 1018.5 0.0
21/02:00pm 27.3 23.5 3.7 22 11.9 SE 13 22 7 12 1019.6 1018.8 0.0
21/01:30pm 28.4 24.5 5.3 23 12.0 E 15 24 8 13 1019.9 1019.1 0.0
21/01:00pm 26.8 22.6 5.7 26 11.0 ESE 17 24 9 13 1020.5 1019.7 0.0
21/12:30pm 26.3 22.1 5.8 27 10.6 SSE 17 28 9 15 1021.0 1020.2 0.0
21/12:00pm 24.9 20.9 6.6 31 9.5 ESE 17 26 9 14 1021.4 1020.6 0.0
21/11:30am 24.0 20.8 8.4 37 8.4 ESE 15 26 8 14 1021.3 1020.5 0.0
21/11:00am 22.6 19.6 9.4 43 7.2 E 15 20 8 11 1021.3 1020.5 0.0
21/10:30am 21.9 18.5 10.7 49 6.2 E 19 24 10 13 1021.1 1020.3 0.0
21/10:00am 20.4 16.6 11.1 55 5.1 E 22 28 12 15 1021.1 1020.3 0.0
21/09:30am 19.2 14.8 11.7 62 4.2 E 26 32 14 17 1020.8 1020.0 0.0
21/09:00am 17.6 13.9 12.7 73 2.7 ENE 24 30 13 16 1020.7 1019.9 0.0
21/08:30am 15.7 12.5 11.9 78 2.1 ENE 20 28 11 15 1020.4 1019.6 0.0
21/08:00am 14.7 11.5 12.0 84 1.5 E 20 26 11 14 1020.2 1019.4 0.0
21/07:30am 13.8 11.0 11.5 86 1.2 E 17 19 9 10 1019.9 1019.1 0.0
21/07:00am 12.6 10.7 10.5 87 1.1 ESE 11 15 6 8 1019.5 1018.7 0.0
21/06:30am 12.7 10.3 10.2 85 1.3 ESE 13 19 7 10 1019.4 1018.6 0.0
21/06:00am 12.7 9.9 10.1 84 1.3 SE 15 19 8 10 1019.2 1018.4 0.0
21/05:30am 12.9 10.5 10.1 83 1.5 ESE 13 17 7 9 1019.2 1018.4 0.0
21/05:00am 13.0 10.1 9.8 81 1.7 SE 15 19 8 10 1019.2 1018.4 0.0
21/04:30am 13.5 10.0 10.1 80 1.8 SE 19 22 10 12 1018.9 1018.1 0.0
21/04:00am 13.6 10.4 10.0 79 1.9 SE 17 20 9 11 1018.9 1018.1 0.0
21/03:30am 14.0 10.8 10.0 77 2.1 SE 17 20 9 11 1019.0 1018.2 0.0
21/03:00am 14.4 11.3 10.2 76 2.2 SE 17 22 9 12 1019.4 1018.6 0.0
21/02:30am 14.6 11.5 10.2 75 2.3 SE 17 20 9 11 1019.6 1018.8 0.0
21/02:00am 15.1 12.0 10.3 73 2.5 SE 17 20 9 11 1020.0 1019.2 0.0
21/01:30am 15.6 12.2 10.6 72 2.7 SE 19 26 10 14 1020.2 1019.4 0.0
21/01:00am 16.0 12.8 11.2 73 2.6 SE 19 22 10 12 1020.2 1019.4 0.0
21/12:30am 16.0 13.1 11.0 72 2.7 SE 17 20 9 11 1020.2 1019.4 0.0
21/12:00am 16.2 13.3 10.9 71 2.8 SSE 17 22 9 12 1020.4 1019.6 0.0
 
Date/Time
CDT
Temp
°C
App
Temp
°C
Dew
Point
°C
Rel
Hum
%
Delta-T
°C
Wind Press
QNH
hPa
Press
MSL
hPa
Rain since
9am
mm
Dir  Spd
km/h
Gust
km/h
Spd
kts
Gust
kts
20/11:30pm 16.6 13.4 11.1 70 3.0 SSE 19 22 10 12 1020.5 1019.7 0.0
20/11:00pm 17.0 13.6 11.1 68 3.2 SSE 20 28 11 15 1020.4 1019.6 0.0
20/10:30pm 17.4 13.2 11.0 66 3.5 SSE 24 32 13 17 1020.2 1019.4 0.0
20/10:00pm 18.0 14.1 10.9 63 3.9 SSE 22 30 12 16 1019.9 1019.1 0.0
20/09:30pm 18.6 14.5 10.2 58 4.5 S 22 32 12 17 1019.5 1018.7 0.0
20/09:00pm 19.3 14.8 10.0 55 5.0 S 24 32 13 17 1019.3 1018.5 0.0
20/08:30pm 20.0 15.5 9.9 52 5.4 S 24 33 13 18 1019.0 1018.2 0.0
20/08:00pm 21.3 16.3 9.5 47 6.4 S 26 39 14 21 1018.7 1017.9 0.0
20/07:30pm 22.5 17.3 9.0 42 7.3 SSW 26 37 14 20 1018.2 1017.4 0.0
20/07:00pm 23.1 17.2 9.1 41 7.6 SSW 30 35 16 19 1018.0 1017.2 0.0
20/06:30pm 24.1 18.2 8.9 38 8.2 SSW 30 41 16 22 1017.9 1017.1 0.0
20/06:00pm 24.7 18.6 8.2 35 8.9 SSW 30 37 16 20 1017.8 1017.0 0.0
20/05:30pm 25.6 20.0 7.2 31 9.7 SSW 26 35 14 19 1017.6 1016.8 0.0
20/05:00pm 26.8 22.4 7.3 29 10.4 S 20 32 11 17 1017.4 1016.6 0.0
20/04:30pm 26.9 23.2 6.3 27 10.8 S 15 30 8 16 1017.4 1016.6 0.0
20/04:00pm 26.4 22.2 5.9 27 10.7 S 17 26 9 14 1017.9 1017.1 0.0
20/03:30pm 25.3 21.4 5.5 28 10.2 SSW 15 24 8 13 1018.4 1017.6 0.0
20/03:00pm 24.9 21.0 5.2 28 10.0 S 15 24 8 13 1018.7 1017.9 0.0
20/02:30pm 24.7 20.8 6.9 32 9.3 SSW 17 26 9 14 1018.9 1018.1 0.0
20/02:00pm 23.6 19.9 6.4 33 8.9 S 15 20 8 11 1019.1 1018.3 0.0
20/01:30pm 23.9 20.9 7.9 36 8.5 SE 13 20 7 11 1019.5 1018.7 0.0
20/01:00pm 22.4 19.3 7.4 38 7.8 SSW 13 24 7 13 1019.9 1019.1 0.0
20/12:30pm 21.4 18.5 8.3 43 6.9 SSW 13 22 7 12 1020.4 1019.6 0.0
20/12:00pm 20.8 18.3 8.4 45 6.5 SE 11 20 6 11 1020.6 1019.8 0.0
20/11:30am 21.0 18.4 9.3 47 6.3 ESE 13 19 7 10 1020.7 1019.9 0.0
20/11:00am 19.8 16.8 9.1 50 5.7 SE 15 20 8 11 1020.7 1019.9 0.0
20/10:30am 18.9 15.9 9.4 54 5.0 SSE 15 22 8 12 1020.8 1020.0 0.0
20/10:00am 18.1 14.7 9.2 56 4.7 SE 17 24 9 13 1020.7 1019.9 0.0
20/09:30am 17.6 14.4 10.0 61 4.0 SE 17 24 9 13 1020.7 1019.9 0.0
20/09:00am 16.7 14.3 10.1 65 3.5 ESE 13 19 7 10 1020.5 1019.7 0.0
20/08:30am 15.6 12.9 10.4 71 2.8 SE 15 19 8 10 1020.1 1019.3 0.0
20/08:00am 14.4 12.0 10.2 76 2.2 ESE 13 17 7 9 1019.8 1019.0 0.0
20/07:30am 13.0 10.9 9.8 81 1.6 ESE 11 13 6 7 1019.5 1018.7 0.0
20/07:00am 12.0 9.6 8.8 81 1.6 ESE 11 13 6 7 1019.2 1018.4 0.0
20/06:30am 12.3 10.0 9.0 80 1.7 SE 11 15 6 8 1019.0 1018.2 0.0
20/06:00am 12.3 9.9 8.8 79 1.8 SE 11 13 6 7 1018.8 1018.0 0.0
20/05:30am 12.3 9.9 8.6 78 1.9 SE 11 13 6 7 1018.8 1018.0 0.0
20/05:00am 12.3 9.9 8.6 78 1.9 SE 11 13 6 7 1018.8 1018.0 0.0
20/04:30am 12.5 10.1 8.6 77 2.0 ESE 11 13 6 7 1018.9 1018.1 0.0
20/04:00am 11.8 9.7 8.1 78 1.8 SE 9 11 5 6 1019.0 1018.2 0.0
20/03:30am 12.7 10.3 8.6 76 2.1 SE 11 13 6 7 1019.0 1018.2 0.0
20/03:00am 13.5 10.4 9.0 74 2.3 SSE 15 19 8 10 1019.1 1018.3 0.0
20/02:30am 13.7 10.6 9.0 73 2.4 SSE 15 19 8 10 1019.0 1018.2 0.0
20/02:00am 14.0 10.9 9.0 72 2.6 SSE 15 19 8 10 1018.9 1018.1 0.0
20/01:30am 14.5 11.5 9.1 70 2.8 SSE 15 20 8 11 1019.0 1018.2 0.0
20/01:00am 14.5 11.4 8.9 69 2.9 SSE 15 17 8 9 1019.1 1018.3 0.0
20/12:30am 14.3 11.4 8.3 67 3.0 SSE 13 17 7 9 1019.0 1018.2 0.0
20/12:00am 15.3 12.2 8.8 65 3.3 S 15 19 8 10 1019.0 1018.2 0.0
 
Date/Time
CDT
Temp
°C
App
Temp
°C
Dew
Point
°C
Rel
Hum
%
Delta-T
°C
Wind Press
QNH
hPa
Press
MSL
hPa
Rain since
9am
mm
Dir  Spd
km/h
Gust
km/h
Spd
kts
Gust
kts
19/11:30pm 15.7 12.2 8.7 63 3.6 S 17 22 9 12 1019.0 1018.2 0.0
19/11:00pm 15.9 12.3 8.4 61 3.8 S 17 22 9 12 1019.1 1018.3 0.0
19/10:30pm 16.3 12.7 8.5 60 4.0 S 17 20 9 11 1019.1 1018.3 0.0
19/10:00pm 16.9 12.8 8.6 58 4.3 S 20 26 11 14 1018.8 1018.0 0.0
19/09:30pm 17.3 13.0 7.9 54 4.8 S 20 30 11 16 1018.3 1017.5 0.0
19/09:00pm 17.9 13.2 7.6 51 5.2 SSW 22 28 12 15 1018.1 1017.3 0.0
19/08:30pm 18.6 13.4 7.4 48 5.7 SSW 24 32 13 17 1017.6 1016.8 0.0
19/08:00pm 19.5 13.1 6.9 44 6.4 SSW 30 39 16 21 1017.6 1016.8 0.0
19/07:30pm 20.9 14.5 6.8 40 7.2 SSW 30 35 16 19 1017.5 1016.7 0.0
19/07:00pm 22.2 16.0 6.0 35 8.2 SSW 28 35 15 19 1017.0 1016.3 0.0
19/06:30pm 22.9 17.1 6.2 34 8.6 SSW 26 35 14 19 1016.9 1016.2 0.0
19/06:00pm 24.2 18.8 6.5 32 9.2 SSW 24 30 13 16 1016.6 1015.9 0.0
19/05:30pm 24.0 18.8 5.4 30 9.5 SSW 22 33 12 18 1016.3 1015.6 0.0
19/05:00pm 24.9 20.0 5.2 28 10.0 SSW 20 32 11 17 1016.2 1015.4 0.0
19/04:30pm 25.4 20.6 4.5 26 10.5 SSW 19 32 10 17 1016.1 1015.3 0.0
19/04:00pm 26.1 21.5 5.7 27 10.6 SW 19 28 10 15 1016.1 1015.3 0.0
19/03:30pm 24.7 20.1 5.5 29 9.8 S 19 28 10 15 1016.3 1015.6 0.0
19/03:00pm 24.8 20.7 6.1 30 9.7 WSW 17 30 9 16 1016.5 1015.8 0.0
19/02:30pm 25.0 21.2 5.7 29 9.9 SSW 15 26 8 14 1016.9 1016.2 0.0
19/02:00pm 24.3 20.0 5.1 29 9.7 SSE 17 39 9 21 1016.8 1016.1 0.0
19/01:30pm 23.9 21.7 6.2 32 9.1 SE 7 15 4 8 1017.4 1016.6 0.0
19/01:00pm 22.4 18.2 5.8 34 8.4 SSE 17 26 9 14 1017.6 1016.8 0.0
19/12:30pm 22.4 18.8 6.6 36 8.1 SE 15 22 8 12 1018.2 1017.4 0.0
19/12:00pm 21.8 18.5 6.5 37 7.8 SSE 13 20 7 11 1018.5 1017.7 0.0
19/11:30am 20.7 16.7 6.6 40 7.2 SSE 17 26 9 14 1018.5 1017.7 0.0
19/11:00am 19.2 14.8 6.7 44 6.3 SE 19 24 10 13 1018.7 1017.9 0.0
19/10:30am 19.3 14.5 7.4 46 6.1 SSE 22 32 12 17 1018.7 1017.9 0.0
19/10:00am 18.3 14.0 7.7 50 5.4 SSE 20 30 11 16 1018.7 1017.9 0.0
19/09:30am 18.0 13.7 7.7 51 5.3 SSE 20 28 11 15 1018.6 1017.8 0.0
19/09:00am 16.6 12.9 8.1 57 4.3 SE 17 24 9 13 1018.3 1017.5 0.0
19/08:30am 14.8 12.0 8.5 66 3.2 SE 13 17 7 9 1017.8 1017.0 0.0
19/08:00am 12.6 10.1 8.3 75 2.1 SE 11 13 6 7 1017.5 1016.7 0.0
19/07:30am 10.6 8.7 7.5 81 1.5 ESE 7 9 4 5 1017.3 1016.5 0.0
19/07:00am 9.9 7.9 6.4 79 1.6 ESE 6 7 3 4 1017.0 1016.3 0.0
19/06:30am 9.9 7.0 6.6 80 1.6 SSE 11 13 6 7 1016.7 1016.0 0.0
19/06:00am 10.9 8.5 7.2 78 1.8 SE 9 13 5 7 1016.6 1015.9 0.0
19/05:30am 11.2 8.5 7.3 77 1.9 SE 11 13 6 7 1016.6 1015.9 0.0
19/05:00am 11.9 9.4 8.0 77 1.9 SSE 11 15 6 8 1016.4 1015.7 0.0
19/04:30am 12.3 9.4 8.2 76 2.0 SSE 13 17 7 9 1016.3 1015.6 0.0
19/04:00am 12.5 9.6 8.2 75 2.1 SSE 13 17 7 9 1016.5 1015.8 0.0
19/03:30am 13.0 9.8 8.5 74 2.3 SSE 15 19 8 10 1016.6 1015.9 0.0
19/03:00am 13.8 10.3 8.6 71 2.6 SSE 17 20 9 11 1016.6 1015.9 0.0
19/02:30am 13.9 10.1 8.9 72 2.5 S 19 22 10 12 1016.8 1016.1 0.0
19/02:00am 13.9 10.4 8.7 71 2.6 S 17 20 9 11 1017.2 1016.4 0.0
19/01:30am 14.0 11.2 8.6 70 2.7 SSE 13 17 7 9 1017.5 1016.7 0.0
19/01:00am 14.4 11.6 8.6 68 2.9 SSE 13 19 7 10 1017.6 1016.8 0.0
19/12:30am 14.8 11.3 8.7 67 3.1 S 17 24 9 13 1017.4 1016.6 0.0
19/12:00am 14.9 11.4 8.8 67 3.1 S 17 22 9 12 1017.5 1016.7 0.0
 
Date/Time
CDT
Temp
°C
App
Temp
°C
Dew
Point
°C
Rel
Hum
%
Delta-T
°C
Wind Press
QNH
hPa
Press
MSL
hPa
Rain since
9am
mm
Dir  Spd
km/h
Gust
km/h
Spd
kts
Gust
kts
18/11:30pm 15.3 11.5 9.0 66 3.2 S 19 22 10 12 1017.5 1016.7 0.0
18/11:00pm 15.6 11.6 9.1 65 3.4 S 20 26 11 14 1017.5 1016.7 0.0
18/10:30pm 15.8 11.9 8.5 62 3.7 S 19 26 10 14 1017.3 1016.5 0.0
18/10:00pm 16.3 12.4 8.8 61 3.9 S 19 26 10 14 1016.8 1016.1 0.0
18/09:30pm 16.7 12.3 9.1 61 4.0 S 22 30 12 16 1016.4 1015.7 0.0
18/09:00pm 17.3 12.8 8.7 57 4.5 S 22 30 12 16 1016.1 1015.3 0.0
18/08:30pm 18.1 14.0 8.7 54 4.9 S 20 28 11 15 1015.7 1014.9 0.0

Other formats

Comma delimited format used in spreadsheet applications
http://www.bom.gov.au/fwo/IDS60801/IDS60801.95662.axf

JavaScript Object Notation format (JSON) in row-major order
http://www.bom.gov.au/fwo/IDS60801/IDS60801.95662.json

Data quality

Most of these data are generated automatically and are frequently updated. Quality checks on data are not normally performed. It is possible for incorrect values to appear. Refer to information at About Latest Weather Observations and please check the disclaimer before using these data.